createdAt,value
2022-12-18T00:01:32.905Z,87.28
2022-12-18T00:04:02.183Z,86.72
2022-12-18T00:06:32.041Z,76.47
2022-12-18T00:09:01.606Z,84.65
2022-12-18T00:11:32.708Z,87.82
2022-12-18T00:14:01.944Z,77.70
2022-12-18T00:16:33.780Z,82.93
2022-12-18T00:19:02.160Z,79.97
2022-12-18T00:21:31.164Z,77.18
2022-12-18T00:24:00.108Z,73.35
2022-12-18T00:26:30.316Z,79.13
2022-12-18T00:29:02.379Z,81.57
2022-12-18T00:31:30.644Z,78.47
2022-12-18T00:33:59.205Z,79.53
2022-12-18T00:36:29.486Z,79.65
2022-12-18T00:38:58.785Z,71.55
2022-12-18T00:41:44.680Z,66.55
2022-12-18T00:44:16.043Z,64.50
2022-12-18T00:46:44.669Z,65.43
2022-12-18T00:49:13.097Z,68.10
2022-12-18T00:51:41.458Z,70.07
2022-12-18T00:54:09.483Z,75.22
2022-12-18T00:56:48.017Z,77.95
2022-12-18T00:59:18.711Z,68.97
2022-12-18T01:01:46.866Z,77.53
2022-12-18T01:04:15.637Z,74.63
2022-12-18T01:06:43.580Z,73.72
2022-12-18T01:09:12.616Z,67.30
2022-12-18T01:11:40.558Z,78.18
2022-12-18T01:14:08.561Z,76.80
2022-12-18T01:16:37.898Z,73.38
2022-12-18T01:19:05.887Z,68.35
2022-12-18T01:21:34.603Z,77.45
2022-12-18T01:24:02.506Z,68.38
2022-12-18T01:26:31.351Z,65.10
2022-12-18T01:28:59.601Z,76.13
2022-12-18T01:31:30.020Z,70.32
2022-12-18T01:33:59.791Z,68.60
2022-12-18T01:36:29.867Z,67.50
2022-12-18T01:38:59.009Z,72.40
2022-12-18T01:41:48.675Z,67.93
2022-12-18T01:44:52.431Z,61.72
2022-12-18T01:47:25.151Z,65.28
2022-12-18T01:49:55.483Z,59.85
2022-12-18T01:52:24.224Z,65.82
2022-12-18T01:54:53.727Z,66.75
2022-12-18T01:57:22.330Z,62.20
2022-12-18T01:59:54.602Z,60.85
2022-12-18T02:02:23.237Z,68.03
2022-12-18T02:04:51.255Z,54.80
2022-12-18T02:07:30.543Z,57.13
2022-12-18T02:10:03.697Z,67.75
2022-12-18T02:12:41.264Z,63.13
2022-12-18T02:17:45.012Z,63.45
2022-12-18T02:20:19.404Z,64.07
2022-12-18T02:23:04.999Z,63.63
2022-12-18T02:25:47.815Z,60.13
2022-12-18T02:28:18.378Z,62.05
2022-12-18T02:30:51.332Z,60.67
2022-12-18T02:33:21.338Z,59.38
2022-12-18T02:35:50.376Z,62.08
2022-12-18T02:38:18.870Z,73.35
2022-12-18T02:40:47.893Z,59.72
2022-12-18T02:43:18.017Z,64.30
2022-12-18T02:45:51.616Z,52.60
2022-12-18T02:48:30.069Z,57.35
2022-12-18T02:51:05.097Z,56.47
2022-12-18T02:53:38.933Z,60.42
2022-12-18T02:56:11.090Z,57.85
2022-12-18T02:58:49.270Z,59.55
2022-12-18T03:01:23.921Z,54.70
2022-12-18T03:03:58.493Z,57.45
2022-12-18T03:06:29.634Z,59.88
2022-12-18T03:09:04.248Z,59.67
2022-12-18T03:11:53.704Z,66.78
2022-12-18T03:14:25.497Z,58.63
2022-12-18T03:16:56.758Z,63.53
2022-12-18T03:19:29.541Z,56.33
2022-12-18T03:22:00.614Z,59.67
2022-12-18T03:24:36.702Z,60.83
2022-12-18T03:27:09.016Z,53.50
2022-12-18T03:29:42.408Z,56.42
2022-12-18T03:32:13.758Z,57.28
2022-12-18T03:34:44.465Z,60.85
2022-12-18T03:37:12.496Z,59.67
2022-12-18T03:39:40.472Z,62.83
2022-12-18T03:42:13.617Z,62.25
2022-12-18T03:44:50.061Z,54.53
2022-12-18T03:47:26.903Z,62.05
2022-12-18T03:49:59.694Z,64.63
2022-12-18T03:52:31.993Z,52.00
2022-12-18T03:55:01.777Z,61.10
2022-12-18T03:57:33.420Z,51.42
2022-12-18T04:00:06.128Z,55.58
2022-12-18T04:02:36.318Z,60.03
2022-12-18T04:05:08.962Z,54.33
2022-12-18T04:07:37.595Z,59.85
2022-12-18T04:10:08.559Z,58.97
2022-12-18T04:12:36.886Z,56.72
2022-12-18T04:15:07.055Z,60.00
2022-12-18T04:17:35.012Z,59.40
2022-12-18T04:20:03.574Z,62.90
2022-12-18T04:22:31.480Z,54.15
2022-12-18T04:24:59.423Z,66.03
2022-12-18T04:27:27.329Z,60.00
2022-12-18T04:29:55.208Z,69.47
2022-12-18T04:32:24.529Z,58.45
2022-12-18T04:34:52.435Z,61.05
2022-12-18T04:37:20.389Z,64.78
2022-12-18T04:39:49.034Z,65.75
2022-12-18T04:42:16.969Z,59.58
2022-12-18T04:44:45.585Z,58.17
2022-12-18T04:47:13.501Z,73.13
2022-12-18T04:49:42.761Z,62.70
2022-12-18T04:52:10.693Z,64.88
2022-12-18T04:54:38.653Z,64.22
2022-12-18T04:57:06.543Z,73.95
2022-12-18T04:59:34.440Z,66.13
2022-12-18T05:02:02.584Z,66.60
2022-12-18T05:04:30.498Z,73.78
2022-12-18T05:06:59.748Z,67.03
2022-12-18T05:09:27.693Z,63.97
2022-12-18T05:11:55.690Z,71.10
2022-12-18T05:14:24.104Z,64.10
2022-12-18T05:16:53.285Z,63.92
2022-12-18T05:19:23.662Z,66.38
2022-12-18T05:21:51.569Z,63.58
2022-12-18T05:24:20.780Z,65.80
2022-12-18T05:26:48.700Z,54.58
2022-12-18T05:29:16.630Z,60.20
2022-12-18T05:31:44.582Z,81.60
2022-12-18T05:34:12.762Z,64.43
2022-12-18T05:36:40.901Z,58.75
2022-12-18T05:39:08.935Z,72.28
2022-12-18T05:41:38.291Z,64.47
2022-12-18T05:44:06.345Z,62.28
2022-12-18T05:46:34.353Z,60.25
2022-12-18T05:49:03.009Z,65.45
2022-12-18T05:51:30.875Z,70.55
2022-12-18T05:53:58.776Z,59.60
2022-12-18T05:56:26.712Z,61.13
2022-12-18T05:58:56.543Z,62.95
2022-12-18T06:01:27.250Z,61.83
2022-12-18T06:03:55.721Z,64.65
2022-12-18T06:06:25.845Z,62.42
2022-12-18T06:08:54.703Z,61.95
2022-12-18T06:11:24.541Z,66.25
2022-12-18T06:13:58.609Z,62.40
2022-12-18T06:16:27.695Z,64.40
2022-12-18T06:18:57.626Z,66.15
2022-12-18T06:21:25.685Z,59.67
2022-12-18T06:23:53.618Z,62.10
2022-12-18T06:26:27.603Z,56.05
2022-12-18T06:28:57.929Z,66.57
2022-12-18T06:31:26.936Z,61.15
2022-12-18T06:33:54.903Z,65.45
2022-12-18T06:36:23.121Z,60.95
2022-12-18T06:38:51.191Z,63.30
2022-12-18T06:41:20.616Z,56.67
2022-12-18T06:43:48.679Z,58.20
2022-12-18T06:46:18.259Z,51.15
2022-12-18T06:48:49.498Z,56.95
2022-12-18T06:51:19.289Z,60.00
2022-12-18T06:53:47.488Z,59.92
2022-12-18T06:56:15.706Z,51.15
2022-12-18T06:58:43.717Z,56.60
2022-12-18T07:01:13.271Z,57.28
2022-12-18T07:03:43.873Z,62.40
2022-12-18T07:06:16.881Z,66.40
2022-12-18T07:08:45.056Z,54.80
2022-12-18T07:11:13.292Z,58.03
2022-12-18T07:13:41.650Z,56.45
2022-12-18T07:16:17.069Z,60.53
2022-12-18T07:18:50.297Z,65.78
2022-12-18T07:21:20.643Z,57.30
2022-12-18T07:23:49.122Z,62.83
2022-12-18T07:26:19.135Z,59.08
2022-12-18T07:28:47.181Z,61.88
2022-12-18T07:31:17.764Z,61.65
2022-12-18T07:33:46.206Z,59.05
2022-12-18T07:36:15.937Z,64.53
2022-12-18T07:38:43.985Z,63.38
2022-12-18T07:41:13.827Z,65.50
2022-12-18T07:43:43.104Z,57.72
2022-12-18T07:46:12.323Z,61.47
2022-12-18T07:48:41.565Z,58.22
2022-12-18T07:51:10.555Z,63.47
2022-12-18T07:53:40.520Z,55.25
2022-12-18T07:56:28.054Z,63.50
2022-12-18T07:58:56.407Z,59.25
2022-12-18T08:01:24.459Z,53.65
2022-12-18T08:03:52.730Z,54.38
2022-12-18T08:06:22.392Z,54.58
2022-12-18T08:08:53.350Z,58.22
2022-12-18T08:11:21.542Z,61.33
2022-12-18T08:13:49.735Z,59.60
2022-12-18T08:16:17.954Z,57.63
2022-12-18T08:18:46.003Z,56.95
2022-12-18T08:21:15.990Z,57.55
2022-12-18T08:23:45.292Z,67.00
2022-12-18T08:26:15.543Z,59.08
2022-12-18T08:28:43.903Z,56.58
2022-12-18T08:31:12.286Z,55.60
2022-12-18T08:33:41.608Z,66.68
2022-12-18T08:36:11.815Z,64.22
2022-12-18T08:38:39.959Z,63.17
2022-12-18T08:41:09.915Z,60.67
2022-12-18T08:43:56.847Z,54.95
2022-12-18T08:46:27.306Z,67.80
2022-12-18T08:48:56.438Z,59.55
2022-12-18T08:51:24.715Z,61.65
2022-12-18T08:53:52.612Z,57.53
2022-12-18T08:56:20.533Z,58.08
2022-12-18T08:58:49.858Z,55.60
2022-12-18T09:01:17.862Z,57.85
2022-12-18T09:03:45.821Z,57.38
2022-12-18T09:06:16.580Z,51.67
2022-12-18T09:08:45.069Z,53.58
2022-12-18T09:11:21.368Z,51.35
2022-12-18T09:13:50.855Z,52.75
2022-12-18T09:16:20.615Z,55.60
2022-12-18T09:18:48.750Z,53.05
2022-12-18T09:21:19.414Z,54.40
2022-12-18T09:23:51.733Z,58.03
2022-12-18T09:26:19.789Z,61.13
2022-12-18T09:28:47.999Z,53.83
2022-12-18T09:31:18.027Z,52.72
2022-12-18T09:33:46.581Z,58.85
2022-12-18T09:36:17.106Z,49.97
2022-12-18T09:38:45.672Z,56.45
2022-12-18T09:41:28.671Z,56.33
2022-12-18T09:44:01.731Z,58.97
2022-12-18T09:46:34.861Z,58.20
2022-12-18T09:49:08.160Z,56.88
2022-12-18T09:51:39.638Z,53.53
2022-12-18T09:54:13.229Z,56.55
2022-12-18T09:56:44.397Z,50.75
2022-12-18T09:59:22.181Z,52.00
2022-12-18T10:04:19.653Z,49.80
2022-12-18T10:06:53.157Z,56.83
2022-12-18T10:09:30.670Z,43.88
2022-12-18T10:12:09.558Z,45.75
2022-12-18T10:14:49.757Z,44.03
2022-12-18T10:17:34.341Z,41.95
2022-12-18T10:20:06.626Z,35.75
2022-12-18T10:22:47.049Z,44.75
2022-12-18T10:25:23.999Z,45.40
2022-12-18T10:27:57.797Z,43.60
2022-12-18T10:30:27.673Z,42.17
2022-12-18T10:33:03.263Z,40.58
2022-12-18T10:35:31.691Z,42.92
2022-12-18T10:38:09.505Z,40.47
2022-12-18T10:40:51.800Z,38.60
2022-12-18T10:43:24.091Z,38.47
2022-12-18T10:46:21.053Z,40.05
2022-12-18T10:48:58.825Z,46.45
2022-12-18T10:51:31.715Z,42.38
2022-12-18T10:54:02.722Z,42.13
2022-12-18T10:56:33.686Z,36.97
2022-12-18T10:59:04.919Z,35.03
2022-12-18T11:01:48.995Z,36.78
2022-12-18T11:04:22.632Z,39.05
2022-12-18T11:07:00.007Z,36.10
2022-12-18T11:09:30.197Z,36.40
2022-12-18T11:12:00.442Z,37.55
2022-12-18T11:14:32.961Z,36.72
2022-12-18T11:17:24.885Z,36.72
2022-12-18T11:19:56.921Z,39.17
2022-12-18T11:22:28.597Z,40.40
2022-12-18T11:27:54.022Z,36.67
2022-12-18T11:30:28.076Z,38.20
2022-12-18T11:33:01.429Z,46.47
2022-12-18T11:35:46.706Z,43.47
2022-12-18T11:38:26.509Z,39.20
2022-12-18T11:41:00.183Z,43.55
2022-12-18T11:43:32.034Z,42.05
2022-12-18T11:46:05.727Z,43.15
2022-12-18T11:48:38.459Z,42.20
2022-12-18T11:51:15.962Z,40.53
2022-12-18T11:53:43.904Z,43.15
2022-12-18T11:56:31.001Z,41.95
2022-12-18T11:59:09.781Z,45.08
2022-12-18T12:01:48.462Z,37.53
2022-12-18T12:04:54.261Z,37.50
2022-12-18T12:07:35.578Z,40.90
2022-12-18T12:10:16.389Z,40.33
2022-12-18T12:13:00.829Z,46.33
2022-12-18T12:15:37.912Z,45.80
2022-12-18T12:18:16.164Z,45.75
2022-12-18T12:23:28.510Z,43.22
2022-12-18T12:26:01.883Z,46.60
2022-12-18T12:28:54.606Z,42.35
2022-12-18T12:31:33.815Z,48.35
2022-12-18T12:34:12.325Z,48.60
2022-12-18T12:36:48.827Z,48.05
2022-12-18T12:39:23.891Z,49.90
2022-12-18T12:42:09.455Z,44.80
2022-12-18T12:44:43.248Z,52.67
2022-12-18T12:47:16.972Z,47.20
2022-12-18T12:49:48.784Z,50.00
2022-12-18T12:52:33.300Z,54.92
2022-12-18T12:55:10.311Z,45.20
2022-12-18T12:57:47.284Z,54.15
2022-12-18T13:00:18.123Z,43.40
2022-12-18T13:02:53.110Z,45.53
2022-12-18T13:05:25.581Z,47.13
2022-12-18T13:07:59.866Z,49.95
2022-12-18T13:10:35.472Z,45.38
2022-12-18T13:13:07.249Z,47.47
2022-12-18T13:15:41.863Z,44.63
2022-12-18T13:18:25.076Z,43.85
2022-12-18T13:21:05.486Z,42.55
2022-12-18T13:23:37.248Z,47.03
2022-12-18T13:26:33.482Z,48.28
2022-12-18T13:29:02.975Z,50.92
2022-12-18T13:32:00.625Z,56.92
2022-12-18T13:34:31.871Z,55.58
2022-12-18T13:37:42.771Z,49.47
2022-12-18T13:41:00.137Z,54.40
2022-12-18T13:43:36.499Z,57.72
2022-12-18T13:46:21.325Z,56.28
2022-12-18T13:49:01.907Z,53.28
2022-12-18T13:51:32.992Z,57.08
2022-12-18T13:54:03.775Z,59.83
2022-12-18T13:56:35.209Z,61.97
2022-12-18T13:59:26.703Z,60.05
2022-12-18T14:01:57.109Z,60.53
2022-12-18T14:04:28.705Z,52.70
2022-12-18T14:07:03.248Z,56.58
2022-12-18T14:09:32.651Z,55.80
2022-12-18T14:12:20.130Z,64.60
2022-12-18T14:14:54.924Z,65.88
2022-12-18T14:17:24.943Z,57.10
2022-12-18T14:19:53.893Z,62.20
2022-12-18T14:22:28.853Z,62.97
2022-12-18T14:25:17.382Z,68.00
2022-12-18T14:27:47.443Z,65.43
2022-12-18T14:30:31.971Z,57.35
2022-12-18T14:33:05.069Z,66.28
2022-12-18T14:35:33.144Z,62.88
2022-12-18T14:38:29.833Z,58.55
2022-12-18T14:41:00.169Z,65.03
2022-12-18T14:43:29.674Z,60.78
2022-12-18T14:45:59.577Z,62.58
2022-12-18T14:48:37.285Z,65.60
2022-12-18T14:51:08.514Z,63.60
2022-12-18T14:53:40.545Z,67.47
2022-12-18T14:56:18.088Z,72.80
2022-12-18T14:58:51.157Z,66.70
2022-12-18T15:01:27.040Z,66.43
2022-12-18T15:03:56.477Z,63.55
2022-12-18T15:06:38.115Z,76.30
2022-12-18T15:09:25.129Z,68.38
2022-12-18T15:11:58.615Z,75.68
2022-12-18T15:14:35.782Z,73.18
2022-12-18T15:17:08.347Z,75.13
2022-12-18T15:19:40.570Z,77.30
2022-12-18T15:22:22.256Z,81.85
2022-12-18T15:24:50.601Z,76.70
2022-12-18T15:27:38.773Z,76.95
2022-12-18T15:30:21.934Z,71.23
2022-12-18T15:32:52.384Z,73.97
2022-12-18T15:35:22.905Z,79.55
2022-12-18T15:37:51.467Z,69.03
2022-12-18T15:40:21.597Z,74.40
2022-12-18T15:43:08.623Z,77.25
2022-12-18T15:45:36.681Z,79.72
2022-12-18T15:48:20.029Z,69.40
2022-12-18T15:50:48.069Z,82.57
2022-12-18T15:53:16.247Z,73.00
2022-12-18T15:56:02.029Z,81.20
2022-12-18T15:58:30.267Z,80.18
2022-12-18T16:01:00.082Z,86.53
2022-12-18T16:03:29.600Z,75.97
2022-12-18T16:05:59.246Z,83.00
2022-12-18T16:08:28.273Z,78.68
2022-12-18T16:10:56.972Z,66.85
2022-12-18T16:13:25.508Z,85.03
2022-12-18T16:15:53.500Z,81.30
2022-12-18T16:18:21.889Z,78.88
2022-12-18T16:20:51.521Z,76.50
2022-12-18T16:23:19.733Z,84.00
2022-12-18T16:25:48.785Z,78.07
2022-12-18T16:28:16.738Z,77.38
2022-12-18T16:30:45.819Z,85.45
2022-12-18T16:33:13.764Z,88.53
2022-12-18T16:35:41.977Z,78.47
2022-12-18T16:38:12.210Z,70.78
2022-12-18T16:41:01.816Z,79.50
2022-12-18T16:43:29.867Z,76.68
2022-12-18T16:46:00.344Z,78.35
2022-12-18T16:48:28.467Z,75.97
2022-12-18T16:51:02.643Z,74.28
2022-12-18T16:53:33.578Z,73.28
2022-12-18T16:56:03.254Z,74.70
2022-12-18T16:58:32.653Z,71.32
2022-12-18T17:01:00.668Z,69.90
2022-12-18T17:03:29.050Z,72.28
2022-12-18T17:05:57.008Z,68.75
2022-12-18T17:08:25.149Z,65.65
2022-12-18T17:10:54.708Z,72.40
2022-12-18T17:13:25.753Z,71.88
2022-12-18T17:15:54.127Z,68.07
2022-12-18T17:18:22.444Z,71.95
2022-12-18T17:20:50.302Z,74.90
2022-12-18T17:23:18.175Z,66.55
2022-12-18T17:25:46.116Z,65.07
2022-12-18T17:28:15.351Z,66.07
2022-12-18T17:30:43.212Z,66.97
2022-12-18T17:33:11.086Z,68.78
2022-12-18T17:35:38.947Z,66.45
2022-12-18T17:38:07.333Z,83.25
2022-12-18T17:40:35.276Z,75.70
2022-12-18T17:43:03.365Z,72.68
2022-12-18T17:45:33.073Z,75.78
2022-12-18T17:48:01.042Z,75.13
2022-12-18T17:50:29.458Z,73.55
2022-12-18T17:52:57.795Z,75.22
2022-12-18T17:55:26.105Z,73.53
2022-12-18T17:57:54.160Z,84.45
2022-12-18T18:00:22.762Z,77.50
2022-12-18T18:02:52.692Z,74.45
2022-12-18T18:05:20.788Z,76.43
2022-12-18T18:07:50.653Z,76.88
2022-12-18T18:10:20.684Z,85.80
2022-12-18T18:13:06.273Z,76.68
2022-12-18T18:15:34.325Z,77.55
2022-12-18T18:18:04.840Z,76.45
2022-12-18T18:20:32.726Z,67.07
2022-12-18T18:23:00.765Z,75.40
2022-12-18T18:25:28.928Z,68.95
2022-12-18T18:27:57.081Z,81.60
2022-12-18T18:30:25.041Z,72.50
2022-12-18T18:32:53.134Z,77.50
2022-12-18T18:35:52.326Z,79.35
2022-12-18T18:38:11.462Z,79.65
2022-12-18T18:40:39.508Z,71.53
2022-12-18T18:43:07.461Z,79.93
2022-12-18T18:45:35.773Z,77.00
2022-12-18T18:48:03.685Z,76.55
2022-12-18T18:50:33.142Z,80.70
2022-12-18T18:53:01.491Z,73.95
2022-12-18T18:55:29.405Z,85.55
2022-12-18T18:57:57.685Z,86.25
2022-12-18T19:00:26.525Z,87.25
2022-12-18T19:03:00.263Z,81.95
2022-12-18T19:05:28.919Z,83.05
2022-12-18T19:07:58.181Z,77.75
2022-12-18T19:10:26.586Z,81.45
2022-12-18T19:13:12.508Z,77.82
2022-12-18T19:15:52.114Z,89.53
2022-12-18T19:20:59.308Z,86.90
2022-12-18T19:23:31.931Z,98.78
2022-12-18T19:26:27.077Z,83.57
2022-12-18T19:28:57.735Z,71.25
2022-12-18T19:31:30.373Z,80.97
2022-12-18T19:34:01.734Z,83.57
2022-12-18T19:36:31.345Z,83.10
2022-12-18T19:39:02.533Z,81.47
2022-12-18T19:41:35.141Z,85.32
2022-12-18T19:44:08.283Z,88.38
2022-12-18T19:46:39.465Z,87.97
2022-12-18T19:49:10.562Z,83.20
2022-12-18T19:51:40.581Z,96.47
2022-12-18T19:54:16.220Z,92.45
2022-12-18T19:56:47.785Z,84.73
2022-12-18T19:59:16.531Z,86.68
2022-12-18T20:01:44.592Z,85.13
2022-12-18T20:04:13.585Z,88.88
2022-12-18T20:06:48.952Z,82.75
2022-12-18T20:09:19.591Z,87.70
2022-12-18T20:11:48.975Z,85.88
2022-12-18T20:14:19.615Z,83.85
2022-12-18T20:16:52.072Z,81.65
2022-12-18T20:19:20.869Z,89.60
2022-12-18T20:21:49.275Z,87.10
2022-12-18T20:24:18.584Z,83.15
2022-12-18T20:26:46.569Z,87.35
2022-12-18T20:29:14.473Z,82.25
2022-12-18T20:31:42.409Z,77.43
2022-12-18T20:34:10.403Z,81.65
2022-12-18T20:36:38.834Z,82.88
2022-12-18T20:39:09.843Z,73.88
2022-12-18T20:41:40.232Z,75.07
2022-12-18T20:44:21.541Z,83.38
2022-12-18T20:46:57.285Z,82.88
2022-12-18T20:49:26.991Z,83.85
2022-12-18T20:51:57.160Z,77.55
2022-12-18T20:54:27.511Z,77.45
2022-12-18T20:56:57.521Z,79.10
2022-12-18T20:59:26.262Z,75.47
2022-12-18T21:01:54.796Z,77.63
2022-12-18T21:04:22.980Z,79.40
2022-12-18T21:06:59.253Z,81.93
2022-12-18T21:09:37.558Z,81.43
2022-12-18T21:12:34.054Z,78.35
2022-12-18T21:15:11.591Z,82.05
2022-12-18T21:17:45.111Z,82.00
2022-12-18T21:20:17.276Z,83.20
2022-12-18T21:22:45.824Z,84.80
2022-12-18T21:25:13.785Z,84.00
2022-12-18T21:27:43.036Z,85.93
2022-12-18T21:30:11.499Z,85.75
2022-12-18T21:32:40.263Z,92.32
2022-12-18T21:35:08.797Z,86.93
2022-12-18T21:37:36.811Z,84.15
2022-12-18T21:40:06.119Z,79.10
2022-12-18T21:42:52.003Z,86.00
2022-12-18T21:45:21.260Z,81.32
2022-12-18T21:47:49.160Z,81.60
2022-12-18T21:50:17.113Z,79.60
2022-12-18T21:52:45.006Z,80.28
2022-12-18T21:55:12.905Z,86.28
2022-12-18T21:57:40.777Z,79.10
2022-12-18T22:00:18.745Z,83.65
2022-12-18T22:03:05.644Z,84.15
2022-12-18T22:05:37.188Z,79.30
2022-12-18T22:08:06.652Z,87.00
2022-12-18T22:10:34.885Z,91.65
2022-12-18T22:13:03.190Z,81.07
2022-12-18T22:15:31.130Z,84.25
2022-12-18T22:18:00.669Z,75.35
2022-12-18T22:20:29.754Z,73.15
2022-12-18T22:22:58.359Z,80.70
2022-12-18T22:25:26.298Z,71.38
2022-12-18T22:28:08.178Z,76.95
2022-12-18T22:30:36.225Z,79.35
2022-12-18T22:33:05.759Z,79.47
2022-12-18T22:35:33.642Z,81.40
2022-12-18T22:38:02.582Z,72.60
2022-12-18T22:40:30.804Z,69.90
2022-12-18T22:42:58.917Z,74.68
2022-12-18T22:45:27.807Z,65.95
2022-12-18T22:47:55.984Z,74.25
2022-12-18T22:50:25.235Z,76.75
2022-12-18T22:52:53.128Z,75.88
2022-12-18T22:55:21.233Z,75.30
2022-12-18T22:57:50.419Z,78.57
2022-12-18T23:00:23.903Z,73.03
2022-12-18T23:02:59.151Z,70.40
2022-12-18T23:05:30.569Z,71.53
2022-12-18T23:07:58.697Z,77.85
2022-12-18T23:10:27.554Z,73.32
2022-12-18T23:12:55.650Z,72.47
2022-12-18T23:15:28.066Z,67.93
2022-12-18T23:17:57.926Z,76.43
2022-12-18T23:20:26.096Z,79.20
2022-12-18T23:22:55.415Z,77.43
2022-12-18T23:25:23.585Z,75.50
2022-12-18T23:27:51.557Z,72.07
2022-12-18T23:30:19.538Z,69.75
2022-12-18T23:32:47.744Z,77.72
2022-12-18T23:35:16.156Z,71.47
2022-12-18T23:38:00.521Z,72.95
2022-12-18T23:40:30.794Z,73.40
2022-12-18T23:42:59.952Z,69.63
2022-12-18T23:45:27.932Z,70.65
2022-12-18T23:47:55.865Z,75.55
2022-12-18T23:50:29.315Z,65.78
2022-12-18T23:53:02.127Z,74.40
2022-12-18T23:55:39.732Z,73.53
2022-12-18T23:58:08.750Z,73.03
